createdAt,value
2022-10-26T00:02:39.401Z,11.30
2022-10-26T00:07:42.182Z,11.30
2022-10-26T00:12:48.272Z,11.20
2022-10-26T00:17:52.022Z,11.10
2022-10-26T00:22:54.938Z,11.10
2022-10-26T00:27:57.696Z,11.00
2022-10-26T00:33:00.535Z,11.00
2022-10-26T00:38:03.356Z,11.00
2022-10-26T00:43:36.190Z,11.00
2022-10-26T00:48:44.812Z,10.90
2022-10-26T00:53:48.065Z,10.80
2022-10-26T00:58:51.246Z,10.80
2022-10-26T01:03:54.290Z,10.80
2022-10-26T01:08:57.226Z,10.80
2022-10-26T01:14:01.734Z,10.70
2022-10-26T01:19:19.763Z,10.70
2022-10-26T01:24:50.692Z,10.70
2022-10-26T01:30:44.026Z,10.80
2022-10-26T01:36:02.007Z,10.70
2022-10-26T01:41:10.949Z,10.60
2022-10-26T01:46:14.999Z,10.50
2022-10-26T01:51:19.385Z,10.50
2022-10-26T01:56:25.443Z,10.40
2022-10-26T02:01:52.111Z,10.30
2022-10-26T02:07:05.524Z,10.40
2022-10-26T02:12:17.083Z,10.40
2022-10-26T02:17:36.920Z,10.30
2022-10-26T02:22:45.414Z,10.30
2022-10-26T02:27:52.791Z,10.20
2022-10-26T02:32:57.850Z,10.20
2022-10-26T02:38:03.250Z,10.10
2022-10-26T02:43:10.853Z,10.00
2022-10-26T02:48:14.447Z,10.10
2022-10-26T02:53:23.209Z,10.10
2022-10-26T02:58:33.539Z,10.10
2022-10-26T03:03:36.459Z,10.10
2022-10-26T03:08:39.247Z,10.20
2022-10-26T03:13:42.144Z,10.20
2022-10-26T03:18:44.926Z,10.20
2022-10-26T03:23:48.087Z,10.10
2022-10-26T03:28:50.923Z,10.20
2022-10-26T03:33:53.769Z,10.10
2022-10-26T03:38:56.540Z,10.10
2022-10-26T03:43:59.401Z,10.00
2022-10-26T03:49:02.246Z,10.00
2022-10-26T03:54:05.812Z,10.00
2022-10-26T03:59:08.617Z,9.90
2022-10-26T04:04:11.483Z,9.80
2022-10-26T04:09:14.459Z,9.80
2022-10-26T04:14:17.276Z,9.80
2022-10-26T04:19:20.114Z,9.80
2022-10-26T04:24:22.981Z,9.80
2022-10-26T04:29:25.840Z,9.80
2022-10-26T04:34:28.628Z,9.80
2022-10-26T04:39:31.464Z,9.80
2022-10-26T04:44:34.229Z,9.80
2022-10-26T04:49:37.032Z,9.80
2022-10-26T04:54:39.850Z,9.80
2022-10-26T04:59:42.525Z,9.80
2022-10-26T05:04:45.389Z,9.80
2022-10-26T05:09:48.284Z,9.80
2022-10-26T05:14:51.107Z,9.70
2022-10-26T05:19:55.851Z,9.70
2022-10-26T05:24:58.686Z,9.60
2022-10-26T05:30:01.500Z,9.60
2022-10-26T05:35:05.122Z,9.50
2022-10-26T05:40:08.526Z,9.50
2022-10-26T05:45:12.487Z,9.40
2022-10-26T05:50:15.366Z,9.40
2022-10-26T05:55:24.193Z,9.40
2022-10-26T06:00:28.642Z,9.40
2022-10-26T06:05:35.769Z,9.50
2022-10-26T06:10:39.413Z,9.50
2022-10-26T06:15:57.285Z,9.50
2022-10-26T06:21:54.412Z,9.60
2022-10-26T06:27:24.918Z,9.80
2022-10-26T06:32:28.282Z,9.90
2022-10-26T06:37:31.880Z,10.10
2022-10-26T06:42:35.032Z,10.30
2022-10-26T06:47:46.243Z,10.50
2022-10-26T06:52:58.202Z,10.70
2022-10-26T06:58:02.290Z,11.00
2022-10-26T07:03:05.142Z,11.30
2022-10-26T07:08:07.940Z,11.50
2022-10-26T07:13:11.324Z,11.80
2022-10-26T07:18:14.545Z,12.50
2022-10-26T07:23:17.250Z,13.40
2022-10-26T07:28:20.197Z,14.20
2022-10-26T07:33:23.126Z,14.90
2022-10-26T07:38:25.730Z,15.40
2022-10-26T07:43:28.515Z,15.70
2022-10-26T07:48:31.109Z,15.80
2022-10-26T07:53:33.984Z,15.90
2022-10-26T07:58:37.312Z,16.00
2022-10-26T08:03:40.657Z,16.00
2022-10-26T08:08:46.418Z,16.10
2022-10-26T08:13:54.637Z,16.20
2022-10-26T08:18:57.689Z,16.10
2022-10-26T08:24:00.679Z,16.20
2022-10-26T08:29:03.744Z,16.40
2022-10-26T08:34:06.624Z,16.50
2022-10-26T08:39:09.575Z,16.70
2022-10-26T08:44:36.335Z,16.80
2022-10-26T08:50:06.579Z,16.90
2022-10-26T08:55:18.947Z,17.10
2022-10-26T09:00:23.430Z,17.20
2022-10-26T09:05:36.880Z,17.20
2022-10-26T09:10:58.749Z,17.30
2022-10-26T09:16:20.237Z,17.50
2022-10-26T09:21:36.129Z,17.60
2022-10-26T09:26:55.596Z,17.80
2022-10-26T09:32:01.136Z,18.00
2022-10-26T09:37:20.287Z,18.20
2022-10-26T09:42:33.559Z,18.50
2022-10-26T09:47:39.084Z,18.70
2022-10-26T09:52:41.938Z,18.80
2022-10-26T09:57:50.420Z,18.90
2022-10-26T10:02:58.203Z,19.00
2022-10-26T10:08:13.172Z,19.00
2022-10-26T10:13:17.522Z,19.10
2022-10-26T10:18:24.083Z,19.00
2022-10-26T10:23:29.013Z,19.00
2022-10-26T10:28:33.441Z,19.10
2022-10-26T10:33:40.822Z,19.10
2022-10-26T10:38:45.141Z,19.20
2022-10-26T10:44:07.413Z,19.30
2022-10-26T10:49:27.859Z,19.40
2022-10-26T10:54:39.339Z,19.40
2022-10-26T10:59:49.369Z,19.50
2022-10-26T11:04:56.585Z,19.60
2022-10-26T11:10:02.920Z,19.60
2022-10-26T11:15:10.552Z,19.60
2022-10-26T11:20:17.795Z,19.60
2022-10-26T11:25:29.061Z,19.60
2022-10-26T11:30:34.091Z,19.60
2022-10-26T11:35:49.173Z,19.70
2022-10-26T11:41:03.233Z,19.70
2022-10-26T11:46:16.559Z,19.70
2022-10-26T11:51:35.845Z,19.60
2022-10-26T11:56:44.398Z,19.50
2022-10-26T12:01:52.544Z,19.50
2022-10-26T12:06:58.901Z,19.50
2022-10-26T12:12:09.675Z,19.40
2022-10-26T12:17:15.475Z,19.40
2022-10-26T12:22:19.904Z,19.30
2022-10-26T12:27:41.080Z,19.20
2022-10-26T12:32:43.975Z,19.20
2022-10-26T12:37:46.808Z,19.20
2022-10-26T12:42:49.599Z,19.20
2022-10-26T12:47:54.309Z,19.20
2022-10-26T12:53:10.909Z,19.30
2022-10-26T12:58:23.613Z,19.40
2022-10-26T13:03:48.458Z,19.40
2022-10-26T13:08:57.838Z,19.50
2022-10-26T13:14:09.072Z,19.50
2022-10-26T13:19:30.365Z,19.60
2022-10-26T13:24:35.008Z,19.60
2022-10-26T13:30:15.410Z,19.60
2022-10-26T13:35:20.244Z,19.50
2022-10-26T13:40:28.414Z,19.50
2022-10-26T13:45:39.355Z,19.60
2022-10-26T13:50:52.072Z,19.80
2022-10-26T13:56:02.297Z,19.80
2022-10-26T14:01:10.409Z,19.80
2022-10-26T14:06:38.891Z,19.70
2022-10-26T14:11:53.133Z,19.60
2022-10-26T14:16:56.731Z,19.40
2022-10-26T14:22:00.109Z,19.30
2022-10-26T14:27:02.939Z,19.10
2022-10-26T14:32:34.048Z,19.10
2022-10-26T14:37:50.116Z,19.00
2022-10-26T14:42:55.784Z,18.90
2022-10-26T14:47:59.608Z,18.90
2022-10-26T14:53:14.927Z,18.80
2022-10-26T14:58:32.990Z,18.80
2022-10-26T15:03:38.536Z,18.70
2022-10-26T15:08:56.321Z,18.60
2022-10-26T15:14:00.343Z,18.60
2022-10-26T15:19:16.018Z,18.40
2022-10-26T15:24:38.638Z,18.30
2022-10-26T15:29:47.107Z,18.10
2022-10-26T15:35:07.514Z,18.00
2022-10-26T15:40:11.194Z,17.90
2022-10-26T15:45:27.882Z,17.80
2022-10-26T15:50:31.014Z,17.60
2022-10-26T15:55:33.916Z,17.50
2022-10-26T16:00:37.275Z,17.50
2022-10-26T16:05:40.279Z,17.40
2022-10-26T16:10:43.620Z,17.30
2022-10-26T16:15:47.056Z,17.30
2022-10-26T16:20:49.763Z,17.20
2022-10-26T16:25:52.643Z,17.10
2022-10-26T16:31:03.596Z,17.10
2022-10-26T16:36:07.348Z,17.00
2022-10-26T16:41:14.591Z,16.90
2022-10-26T16:46:20.089Z,16.90
2022-10-26T16:51:24.875Z,16.90
2022-10-26T16:56:29.132Z,16.80
2022-10-26T17:01:32.466Z,16.80
2022-10-26T17:06:35.555Z,16.70
2022-10-26T17:11:38.473Z,16.60
2022-10-26T17:16:41.506Z,16.50
2022-10-26T17:21:44.558Z,16.50
2022-10-26T17:26:47.580Z,16.50
2022-10-26T17:31:50.367Z,16.40
2022-10-26T17:36:53.554Z,16.40
2022-10-26T17:41:56.733Z,16.30
2022-10-26T17:47:00.002Z,16.30
2022-10-26T17:52:02.751Z,16.20
2022-10-26T17:57:05.639Z,16.10
2022-10-26T18:02:10.213Z,16.00
2022-10-26T18:07:13.326Z,16.00
2022-10-26T18:12:16.082Z,15.90
2022-10-26T18:17:19.255Z,15.90
2022-10-26T18:22:22.028Z,15.80
2022-10-26T18:27:24.782Z,15.70
2022-10-26T18:32:27.339Z,15.50
2022-10-26T18:37:30.250Z,15.40
2022-10-26T18:42:33.052Z,15.20
2022-10-26T18:47:35.936Z,15.10
2022-10-26T18:52:38.693Z,14.90
2022-10-26T18:57:41.446Z,14.70
2022-10-26T19:02:44.894Z,14.50
2022-10-26T19:07:49.984Z,14.40
2022-10-26T19:12:53.271Z,14.30
2022-10-26T19:17:57.952Z,14.20
2022-10-26T19:23:00.734Z,14.20
2022-10-26T19:28:03.657Z,14.20
2022-10-26T19:33:06.433Z,14.20
2022-10-26T19:38:09.215Z,14.20
2022-10-26T19:43:12.627Z,14.20
2022-10-26T19:48:15.395Z,14.20
2022-10-26T19:53:18.607Z,14.10
2022-10-26T19:58:21.477Z,14.10
2022-10-26T20:03:24.814Z,14.00
2022-10-26T20:08:28.119Z,14.00
2022-10-26T20:13:31.342Z,14.00
2022-10-26T20:18:34.873Z,14.00
2022-10-26T20:23:37.830Z,14.10
2022-10-26T20:28:45.685Z,14.00
2022-10-26T20:33:52.781Z,14.00
2022-10-26T20:38:55.885Z,14.00
2022-10-26T20:43:59.056Z,14.00
2022-10-26T20:49:02.160Z,14.00
2022-10-26T20:54:33.837Z,14.10
2022-10-26T21:00:03.834Z,14.10
2022-10-26T21:05:07.119Z,14.10
2022-10-26T21:10:10.161Z,14.10
2022-10-26T21:15:12.875Z,14.20
2022-10-26T21:20:15.604Z,14.30
2022-10-26T21:25:18.602Z,14.30
2022-10-26T21:30:21.794Z,14.30
2022-10-26T21:35:24.596Z,14.30
2022-10-26T21:40:27.372Z,14.20
2022-10-26T21:45:30.178Z,14.20
2022-10-26T21:50:32.774Z,14.30
2022-10-26T21:55:35.473Z,14.30
2022-10-26T22:00:38.080Z,14.30
2022-10-26T22:05:45.032Z,14.40
2022-10-26T22:10:48.767Z,14.40
2022-10-26T22:16:24.950Z,14.30
2022-10-26T22:21:31.988Z,14.20
2022-10-26T22:26:36.583Z,14.10
2022-10-26T22:31:40.557Z,14.00
2022-10-26T22:36:43.975Z,13.90
2022-10-26T22:41:49.181Z,13.80
2022-10-26T22:46:51.948Z,13.70
2022-10-26T22:51:54.702Z,13.50
2022-10-26T22:56:57.602Z,13.40
2022-10-26T23:02:00.513Z,13.20
2022-10-26T23:07:03.551Z,13.20
2022-10-26T23:12:06.387Z,13.00
2022-10-26T23:17:10.027Z,12.90
2022-10-26T23:22:12.841Z,12.80
2022-10-26T23:27:15.560Z,12.70
2022-10-26T23:32:18.682Z,12.60
2022-10-26T23:37:21.433Z,12.60
2022-10-26T23:42:24.217Z,12.60
2022-10-26T23:47:26.946Z,12.50
2022-10-26T23:52:29.727Z,12.50
2022-10-26T23:57:32.289Z,12.40
